createdAt,value
2019-06-20T00:01:28.575Z,18.70
2019-06-20T00:03:56.260Z,18.80
2019-06-20T00:06:23.975Z,18.90
2019-06-20T00:08:51.651Z,18.90
2019-06-20T00:11:19.295Z,19.00
2019-06-20T00:13:47.233Z,19.00
2019-06-20T00:16:15.136Z,18.90
2019-06-20T00:18:42.817Z,18.90
2019-06-20T00:21:10.459Z,18.80
2019-06-20T00:23:38.146Z,18.80
2019-06-20T00:26:05.783Z,18.80
2019-06-20T00:28:33.467Z,18.70
2019-06-20T00:31:01.126Z,18.70
2019-06-20T00:33:29.127Z,18.70
2019-06-20T00:35:56.784Z,18.60
2019-06-20T00:38:24.454Z,18.50
2019-06-20T00:40:52.100Z,18.40
2019-06-20T00:43:19.795Z,18.40
2019-06-20T00:45:47.433Z,18.30
2019-06-20T00:48:15.532Z,18.20
2019-06-20T00:50:43.180Z,18.20
2019-06-20T00:53:10.869Z,18.20
2019-06-20T00:55:38.588Z,18.20
2019-06-20T00:58:06.536Z,18.30
2019-06-20T01:00:34.180Z,18.20
2019-06-20T01:03:02.276Z,18.20
2019-06-20T01:05:30.108Z,18.20
2019-06-20T01:07:57.830Z,18.20
2019-06-20T01:10:25.462Z,18.20
2019-06-20T01:12:53.142Z,18.20
2019-06-20T01:15:21.000Z,18.20
2019-06-20T01:17:48.672Z,18.10
2019-06-20T01:20:16.316Z,18.20
2019-06-20T01:22:43.997Z,18.20
2019-06-20T01:25:11.846Z,18.30
2019-06-20T01:27:39.531Z,18.50
2019-06-20T01:30:08.945Z,18.60
2019-06-20T01:32:36.582Z,18.70
2019-06-20T01:35:08.608Z,18.70
2019-06-20T01:37:36.269Z,18.70
2019-06-20T01:40:05.116Z,18.70
2019-06-20T01:42:32.829Z,18.60
2019-06-20T01:45:00.508Z,18.50
2019-06-20T01:47:28.151Z,18.40
2019-06-20T01:49:55.827Z,18.40
2019-06-20T01:52:23.471Z,18.30
2019-06-20T01:54:51.160Z,18.30
2019-06-20T01:57:18.802Z,18.30
2019-06-20T01:59:46.484Z,18.20
2019-06-20T02:02:14.132Z,18.30
2019-06-20T02:04:41.810Z,18.30
2019-06-20T02:07:09.455Z,18.20
2019-06-20T02:09:37.160Z,18.10
2019-06-20T02:12:04.839Z,18.00
2019-06-20T02:14:32.640Z,18.00
2019-06-20T02:17:00.297Z,17.90
2019-06-20T02:19:27.976Z,17.90
2019-06-20T02:21:55.685Z,17.90
2019-06-20T02:24:23.608Z,17.90
2019-06-20T02:26:51.329Z,17.90
2019-06-20T02:29:19.011Z,17.80
2019-06-20T02:31:46.653Z,17.80
2019-06-20T02:34:14.322Z,17.70
2019-06-20T02:36:41.969Z,17.70
2019-06-20T02:39:09.645Z,17.70
2019-06-20T02:41:37.367Z,17.80
2019-06-20T02:44:05.329Z,17.80
2019-06-20T02:46:33.105Z,17.80
2019-06-20T02:49:00.788Z,17.80
2019-06-20T02:51:29.308Z,17.70
2019-06-20T02:53:57.060Z,17.70
2019-06-20T02:56:24.944Z,17.70
2019-06-20T02:58:52.631Z,17.70
2019-06-20T03:01:20.280Z,17.70
2019-06-20T03:03:47.957Z,17.70
2019-06-20T03:06:15.605Z,17.70
2019-06-20T03:08:43.348Z,17.80
2019-06-20T03:11:10.988Z,17.80
2019-06-20T03:13:38.662Z,17.80
2019-06-20T03:16:06.328Z,17.70
2019-06-20T03:18:34.060Z,17.70
2019-06-20T03:21:01.780Z,17.70
2019-06-20T03:23:29.948Z,17.60
2019-06-20T03:25:57.631Z,17.70
2019-06-20T03:28:25.340Z,17.80
2019-06-20T03:30:53.029Z,17.80
2019-06-20T03:33:20.676Z,17.90
2019-06-20T03:35:48.673Z,18.00
2019-06-20T03:38:16.316Z,18.10
2019-06-20T03:40:44.057Z,18.10
2019-06-20T03:43:11.744Z,18.10
2019-06-20T03:45:39.476Z,18.20
2019-06-20T03:48:07.505Z,18.10
2019-06-20T03:50:35.180Z,18.10
2019-06-20T03:53:03.144Z,18.00
2019-06-20T03:55:33.969Z,17.90
2019-06-20T03:58:02.210Z,17.90
2019-06-20T04:00:31.438Z,17.90
2019-06-20T04:02:59.104Z,17.90
2019-06-20T04:05:26.856Z,17.90
2019-06-20T04:07:54.524Z,18.00
2019-06-20T04:10:22.262Z,18.00
2019-06-20T04:12:49.903Z,18.10
2019-06-20T04:15:19.440Z,18.10
2019-06-20T04:17:47.034Z,18.10
2019-06-20T04:20:14.854Z,18.10
2019-06-20T04:22:42.662Z,18.10
2019-06-20T04:25:10.413Z,18.10
2019-06-20T04:27:38.052Z,18.10
2019-06-20T04:30:06.733Z,18.10
2019-06-20T04:32:34.427Z,18.10
2019-06-20T04:35:02.180Z,18.10
2019-06-20T04:37:29.824Z,18.20
2019-06-20T04:39:57.509Z,18.30
2019-06-20T04:42:25.153Z,18.30
2019-06-20T04:44:54.468Z,18.30
2019-06-20T04:47:22.460Z,18.30
2019-06-20T04:49:50.143Z,18.40
2019-06-20T04:52:17.793Z,18.50
2019-06-20T04:54:45.467Z,18.60
2019-06-20T04:57:13.188Z,18.60
2019-06-20T04:59:40.876Z,18.70
2019-06-20T05:02:08.547Z,18.80
2019-06-20T05:04:36.224Z,18.90
2019-06-20T05:07:08.059Z,18.90
2019-06-20T05:09:35.731Z,19.00
2019-06-20T05:12:03.387Z,19.10
2019-06-20T05:14:31.063Z,19.20
2019-06-20T05:16:58.719Z,19.20
2019-06-20T05:19:26.364Z,19.30
2019-06-20T05:21:54.042Z,19.40
2019-06-20T05:24:24.704Z,19.40
2019-06-20T05:26:51.065Z,19.50
2019-06-20T05:29:18.850Z,19.60
2019-06-20T05:31:46.520Z,19.70
2019-06-20T05:34:14.163Z,19.70
2019-06-20T05:36:41.871Z,19.80
2019-06-20T05:39:09.525Z,19.80
2019-06-20T05:41:37.265Z,19.90
2019-06-20T05:44:04.962Z,20.00
2019-06-20T05:46:32.671Z,20.00
2019-06-20T05:49:01.134Z,20.10
2019-06-20T05:51:28.881Z,20.20
2019-06-20T05:53:56.528Z,20.30
2019-06-20T05:56:24.213Z,20.30
2019-06-20T05:58:51.852Z,20.40
2019-06-20T06:01:19.542Z,20.50
2019-06-20T06:03:47.179Z,20.50
2019-06-20T06:06:15.157Z,20.60
2019-06-20T06:08:42.815Z,20.70
2019-06-20T06:11:10.502Z,20.80
2019-06-20T06:13:38.438Z,20.80
2019-06-20T06:16:06.127Z,20.90
2019-06-20T06:18:33.780Z,20.90
2019-06-20T06:21:01.460Z,21.00
2019-06-20T06:23:29.109Z,21.00
2019-06-20T06:25:57.355Z,21.10
2019-06-20T06:28:24.992Z,21.20
2019-06-20T06:30:52.671Z,21.20
2019-06-20T06:33:20.311Z,21.20
2019-06-20T06:35:48.072Z,21.30
2019-06-20T06:38:22.202Z,21.40
2019-06-20T06:40:45.145Z,21.40
2019-06-20T06:43:12.792Z,21.40
2019-06-20T06:45:40.484Z,21.50
2019-06-20T06:48:08.200Z,21.50
2019-06-20T06:50:36.014Z,21.50
2019-06-20T06:53:03.687Z,21.50
2019-06-20T06:55:31.468Z,21.60
2019-06-20T06:57:59.429Z,21.70
2019-06-20T07:00:27.113Z,21.80
2019-06-20T07:02:54.765Z,21.80
2019-06-20T07:05:22.535Z,21.80
2019-06-20T07:07:50.223Z,21.80
2019-06-20T07:10:17.972Z,21.80
2019-06-20T07:12:45.925Z,21.80
2019-06-20T07:15:14.036Z,21.90
2019-06-20T07:17:41.792Z,21.90
2019-06-20T07:20:09.808Z,22.00
2019-06-20T07:22:37.556Z,22.10
2019-06-20T07:25:05.968Z,22.20
2019-06-20T07:27:33.956Z,22.30
2019-06-20T07:30:01.598Z,22.40
2019-06-20T07:32:29.291Z,22.50
2019-06-20T07:34:56.923Z,22.70
2019-06-20T07:37:24.863Z,22.80
2019-06-20T07:39:52.510Z,22.90
2019-06-20T07:42:20.183Z,22.80
2019-06-20T07:44:47.837Z,22.80
2019-06-20T07:47:17.931Z,22.80
2019-06-20T07:49:44.873Z,22.80
2019-06-20T07:52:12.922Z,22.70
2019-06-20T07:54:40.564Z,22.70
2019-06-20T07:57:08.248Z,22.70
2019-06-20T07:59:35.895Z,22.70
2019-06-20T08:02:03.645Z,22.70
2019-06-20T08:04:31.369Z,22.90
2019-06-20T08:06:59.056Z,23.00
2019-06-20T08:09:43.871Z,23.20
2019-06-20T08:11:56.112Z,23.30
2019-06-20T08:14:23.763Z,23.40
2019-06-20T08:16:51.440Z,23.50
2019-06-20T08:19:19.098Z,23.50
2019-06-20T08:21:46.794Z,23.40
2019-06-20T08:24:14.509Z,23.40
2019-06-20T08:26:42.192Z,23.40
2019-06-20T08:29:20.098Z,23.50
2019-06-20T08:31:39.239Z,23.50
2019-06-20T08:34:06.883Z,23.50
2019-06-20T08:36:34.579Z,23.50
2019-06-20T08:39:02.644Z,23.50
2019-06-20T08:41:30.698Z,23.50
2019-06-20T08:43:59.771Z,23.50
2019-06-20T08:46:27.651Z,23.60
2019-06-20T08:48:56.611Z,23.60
2019-06-20T08:51:24.697Z,23.70
2019-06-20T08:53:52.408Z,23.70
2019-06-20T08:56:20.159Z,23.80
2019-06-20T08:58:47.810Z,23.80
2019-06-20T09:01:15.743Z,23.80
2019-06-20T09:03:43.388Z,23.90
2019-06-20T09:06:11.063Z,23.90
2019-06-20T09:08:38.711Z,24.00
2019-06-20T09:11:06.392Z,24.20
2019-06-20T09:13:34.127Z,24.40
2019-06-20T09:16:03.080Z,24.50
2019-06-20T09:18:30.872Z,24.40
2019-06-20T09:20:58.527Z,24.40
2019-06-20T09:23:26.208Z,24.40
2019-06-20T09:25:53.851Z,24.50
2019-06-20T09:28:21.529Z,24.60
2019-06-20T09:30:49.167Z,24.60
2019-06-20T09:33:17.228Z,24.50
2019-06-20T09:35:44.879Z,24.50
2019-06-20T09:38:12.554Z,24.70
2019-06-20T09:40:40.231Z,24.70
2019-06-20T09:43:07.915Z,24.60
2019-06-20T09:45:35.557Z,24.50
2019-06-20T09:48:03.246Z,24.50
2019-06-20T09:50:30.895Z,24.40
2019-06-20T09:52:58.572Z,24.20
2019-06-20T09:55:26.212Z,24.20
2019-06-20T09:57:53.895Z,24.20
2019-06-20T10:00:23.254Z,24.10
2019-06-20T10:02:52.425Z,24.20
2019-06-20T10:05:20.660Z,24.30
2019-06-20T10:07:48.663Z,24.40
2019-06-20T10:10:17.953Z,24.50
2019-06-20T10:12:46.768Z,24.60
2019-06-20T10:15:19.742Z,24.60
2019-06-20T10:17:48.552Z,24.60
2019-06-20T10:20:16.343Z,24.70
2019-06-20T10:22:44.049Z,24.70
2019-06-20T10:25:13.214Z,24.70
2019-06-20T10:27:40.900Z,24.70
2019-06-20T10:30:14.366Z,24.70
2019-06-20T10:32:39.023Z,24.70
2019-06-20T10:35:07.112Z,24.70
2019-06-20T10:37:34.797Z,24.80
2019-06-20T10:40:02.476Z,24.90
2019-06-20T10:42:30.553Z,24.90
2019-06-20T10:44:58.221Z,24.90
2019-06-20T10:47:33.628Z,24.90
2019-06-20T10:49:55.270Z,24.90
2019-06-20T10:52:23.028Z,24.90
2019-06-20T10:54:51.436Z,25.00
2019-06-20T10:57:19.256Z,25.10
2019-06-20T10:59:46.974Z,25.20
2019-06-20T11:02:14.661Z,25.30
2019-06-20T11:04:42.807Z,25.20
2019-06-20T11:07:11.685Z,25.20
2019-06-20T11:09:40.160Z,25.30
2019-06-20T11:12:08.913Z,25.30
2019-06-20T11:14:38.677Z,25.40
2019-06-20T11:17:05.965Z,25.50
2019-06-20T11:19:33.608Z,25.50
2019-06-20T11:22:01.300Z,25.50
2019-06-20T11:24:28.944Z,25.50
2019-06-20T11:26:56.585Z,25.50
2019-06-20T11:29:24.524Z,25.50
2019-06-20T11:31:52.171Z,25.60
2019-06-20T11:34:19.851Z,25.80
2019-06-20T11:36:47.504Z,25.90
2019-06-20T11:39:15.188Z,26.00
2019-06-20T11:41:43.682Z,26.00
2019-06-20T11:44:11.383Z,26.00
2019-06-20T11:46:40.574Z,25.90
2019-06-20T11:49:08.417Z,26.00
2019-06-20T11:51:36.063Z,26.10
2019-06-20T11:54:03.819Z,26.10
2019-06-20T11:56:31.475Z,26.10
2019-06-20T11:58:59.153Z,26.00
2019-06-20T12:01:32.952Z,26.10
2019-06-20T12:03:56.268Z,26.00
2019-06-20T12:06:23.914Z,26.00
2019-06-20T12:08:51.591Z,26.00
2019-06-20T12:11:21.875Z,26.10
2019-06-20T12:13:49.989Z,26.30
2019-06-20T12:16:17.634Z,26.30
2019-06-20T12:18:45.316Z,26.10
2019-06-20T12:21:12.977Z,26.30
2019-06-20T12:23:40.710Z,26.30
2019-06-20T12:26:08.552Z,26.30
2019-06-20T12:28:36.301Z,26.40
2019-06-20T12:31:18.615Z,26.60
2019-06-20T12:33:33.353Z,26.50
2019-06-20T12:36:01.005Z,26.40
2019-06-20T12:38:28.682Z,26.40
2019-06-20T12:40:56.704Z,26.50
2019-06-20T12:43:24.379Z,26.40
2019-06-20T12:45:52.027Z,26.30
2019-06-20T12:48:19.711Z,26.30
2019-06-20T12:50:47.618Z,26.30
2019-06-20T12:53:15.420Z,26.40
2019-06-20T12:55:43.059Z,26.50
2019-06-20T12:58:10.747Z,26.90
2019-06-20T13:00:39.586Z,26.80
2019-06-20T13:03:07.879Z,26.50
2019-06-20T13:05:35.664Z,26.40
2019-06-20T13:08:03.823Z,26.40
2019-06-20T13:10:31.468Z,26.50
2019-06-20T13:12:59.152Z,26.60
2019-06-20T13:15:31.468Z,26.70
2019-06-20T13:17:59.892Z,26.80
2019-06-20T13:20:27.559Z,26.70
2019-06-20T13:22:55.316Z,26.70
2019-06-20T13:25:22.960Z,26.70
2019-06-20T13:27:50.854Z,26.70
2019-06-20T13:30:18.771Z,26.60
2019-06-20T13:32:47.202Z,26.60
2019-06-20T13:35:15.511Z,26.70
2019-06-20T13:37:43.570Z,26.90
2019-06-20T13:40:12.838Z,27.10
2019-06-20T13:42:42.107Z,26.90
2019-06-20T13:45:22.673Z,26.80
2019-06-20T13:47:50.381Z,26.80
2019-06-20T13:50:19.113Z,26.70
2019-06-20T13:52:49.190Z,26.70
2019-06-20T13:55:16.571Z,26.60
2019-06-20T13:57:45.255Z,26.60
2019-06-20T14:00:15.590Z,26.50
2019-06-20T14:02:45.009Z,26.40
2019-06-20T14:05:12.938Z,26.30
2019-06-20T14:07:44.144Z,26.20
2019-06-20T14:10:10.060Z,26.10
2019-06-20T14:12:37.695Z,26.00
2019-06-20T14:15:05.843Z,25.90
2019-06-20T14:17:33.498Z,25.80
2019-06-20T14:20:01.184Z,25.70
2019-06-20T14:22:28.844Z,25.70
2019-06-20T14:24:56.510Z,25.70
2019-06-20T14:27:24.160Z,25.60
2019-06-20T14:29:51.835Z,25.50
2019-06-20T14:32:22.457Z,25.50
2019-06-20T14:34:50.347Z,25.40
2019-06-20T14:37:18.141Z,25.30
2019-06-20T14:39:45.912Z,25.30
2019-06-20T14:42:13.546Z,25.30
2019-06-20T14:44:41.227Z,25.20
2019-06-20T14:47:09.484Z,25.10
2019-06-20T14:49:37.511Z,25.10
2019-06-20T14:52:05.143Z,25.00
2019-06-20T14:54:32.908Z,24.90
2019-06-20T14:57:00.571Z,24.90
2019-06-20T14:59:28.663Z,24.90
2019-06-20T15:01:56.756Z,24.90
2019-06-20T15:04:24.526Z,24.90
2019-06-20T15:06:52.531Z,24.80
2019-06-20T15:09:20.314Z,24.70
2019-06-20T15:11:49.346Z,24.70
2019-06-20T15:14:17.486Z,24.50
2019-06-20T15:16:46.242Z,24.30
2019-06-20T15:19:14.600Z,24.20
2019-06-20T15:21:42.650Z,24.00
2019-06-20T15:24:10.371Z,23.70
2019-06-20T15:26:38.052Z,23.30
2019-06-20T15:29:06.315Z,23.00
2019-06-20T15:31:34.128Z,22.30
2019-06-20T15:34:01.815Z,21.40
2019-06-20T15:36:29.460Z,20.70
2019-06-20T15:38:57.383Z,20.30
2019-06-20T15:41:25.477Z,19.90
2019-06-20T15:43:53.781Z,19.70
2019-06-20T15:46:21.598Z,19.60
2019-06-20T15:48:49.276Z,19.40
2019-06-20T15:51:16.919Z,19.20
2019-06-20T15:53:44.916Z,19.20
2019-06-20T15:56:12.607Z,19.00
2019-06-20T15:58:40.251Z,19.00
2019-06-20T16:01:07.923Z,18.80
2019-06-20T16:03:35.580Z,18.70
2019-06-20T16:06:03.304Z,18.70
2019-06-20T16:08:30.944Z,18.60
2019-06-20T16:10:58.879Z,18.50
2019-06-20T16:13:26.525Z,18.50
2019-06-20T16:15:54.252Z,18.50
2019-06-20T16:18:22.267Z,18.50
2019-06-20T16:20:49.947Z,18.50
2019-06-20T16:23:17.592Z,18.50
2019-06-20T16:25:45.551Z,18.50
2019-06-20T16:28:13.210Z,18.60
2019-06-20T16:30:40.884Z,18.60
2019-06-20T16:33:21.425Z,18.50
2019-06-20T16:35:38.254Z,18.60
2019-06-20T16:38:05.891Z,18.50
2019-06-20T16:40:41.663Z,18.50
2019-06-20T16:43:09.311Z,18.50
2019-06-20T16:45:40.141Z,18.60
2019-06-20T16:48:08.865Z,18.60
2019-06-20T16:50:36.931Z,18.60
2019-06-20T16:53:04.857Z,18.60
2019-06-20T16:55:33.044Z,18.60
2019-06-20T16:58:00.741Z,18.60
2019-06-20T17:00:28.578Z,18.60
2019-06-20T17:02:56.228Z,18.60
2019-06-20T17:05:24.077Z,18.50
2019-06-20T17:07:51.724Z,18.60
2019-06-20T17:10:19.680Z,18.50
2019-06-20T17:12:47.692Z,18.50
2019-06-20T17:15:15.539Z,18.50
2019-06-20T17:17:43.468Z,18.50
2019-06-20T17:20:11.407Z,18.50
2019-06-20T17:22:39.060Z,18.40
2019-06-20T17:25:07.019Z,18.40
2019-06-20T17:27:34.668Z,18.40
2019-06-20T17:30:02.408Z,18.40
2019-06-20T17:32:30.112Z,18.40
2019-06-20T17:34:57.861Z,18.50
2019-06-20T17:37:25.789Z,18.50
2019-06-20T17:39:53.474Z,18.50
2019-06-20T17:42:27.296Z,18.50
2019-06-20T17:44:55.326Z,18.50
2019-06-20T17:47:23.110Z,18.50
2019-06-20T17:50:10.177Z,18.50
2019-06-20T17:52:37.850Z,18.50
2019-06-20T17:55:06.348Z,18.50
2019-06-20T17:57:33.992Z,18.60
2019-06-20T18:00:01.700Z,18.60
2019-06-20T18:02:29.355Z,18.70
2019-06-20T18:04:57.034Z,18.80
2019-06-20T18:07:24.744Z,18.80
2019-06-20T18:09:53.792Z,19.00
2019-06-20T18:12:21.570Z,19.40
2019-06-20T18:14:49.288Z,19.70
2019-06-20T18:17:17.363Z,19.90
2019-06-20T18:19:45.595Z,20.00
2019-06-20T18:22:13.749Z,20.30
2019-06-20T18:24:48.945Z,20.30
2019-06-20T18:27:16.687Z,20.30
2019-06-20T18:29:44.609Z,20.40
2019-06-20T18:32:12.782Z,20.50
2019-06-20T18:34:40.747Z,20.60
2019-06-20T18:37:08.715Z,20.70
2019-06-20T18:39:36.397Z,20.80
2019-06-20T18:42:04.151Z,21.20
2019-06-20T18:44:31.826Z,21.60
2019-06-20T18:46:59.483Z,21.40
2019-06-20T18:49:27.159Z,20.90
2019-06-20T18:51:54.803Z,20.50
2019-06-20T18:54:22.866Z,20.20
2019-06-20T18:56:50.824Z,19.90
2019-06-20T18:59:18.507Z,19.80
2019-06-20T19:01:46.221Z,19.60
2019-06-20T19:04:14.223Z,19.50
2019-06-20T19:06:41.863Z,19.40
2019-06-20T19:09:09.546Z,19.40
2019-06-20T19:11:37.207Z,19.30
2019-06-20T19:14:05.155Z,19.20
2019-06-20T19:16:32.804Z,19.10
2019-06-20T19:19:00.554Z,19.10
2019-06-20T19:21:28.488Z,19.10
2019-06-20T19:23:56.171Z,19.10
2019-06-20T19:26:23.817Z,19.00
2019-06-20T19:28:51.511Z,18.90
2019-06-20T19:31:20.419Z,18.90
2019-06-20T19:33:48.348Z,18.80
2019-06-20T19:36:15.995Z,18.80
2019-06-20T19:38:43.672Z,18.80
2019-06-20T19:41:11.320Z,18.60
2019-06-20T19:43:39.005Z,18.60
2019-06-20T19:46:06.753Z,18.60
2019-06-20T19:48:36.715Z,18.50
2019-06-20T19:51:04.324Z,18.50
2019-06-20T19:53:32.440Z,18.40
2019-06-20T19:56:00.163Z,18.30
2019-06-20T19:58:27.816Z,18.30
2019-06-20T20:00:56.243Z,18.30
2019-06-20T20:03:23.965Z,18.20
2019-06-20T20:05:51.639Z,18.20
2019-06-20T20:08:19.459Z,18.20
2019-06-20T20:10:48.011Z,18.20
2019-06-20T20:13:15.931Z,18.20
2019-06-20T20:15:44.138Z,18.10
2019-06-20T20:18:11.786Z,18.10
2019-06-20T20:20:39.455Z,18.10
2019-06-20T20:23:07.119Z,18.10
2019-06-20T20:25:34.794Z,18.10
2019-06-20T20:28:02.459Z,18.10
2019-06-20T20:30:30.130Z,18.00
2019-06-20T20:32:57.776Z,17.90
2019-06-20T20:35:34.927Z,17.90
2019-06-20T20:37:54.875Z,17.90
2019-06-20T20:40:23.391Z,17.90
2019-06-20T20:42:51.111Z,17.80
2019-06-20T20:45:19.065Z,17.80
2019-06-20T20:47:46.708Z,17.70
2019-06-20T20:50:14.406Z,17.60
2019-06-20T20:52:42.190Z,17.50
2019-06-20T20:55:10.444Z,17.50
2019-06-20T20:57:38.185Z,17.50
2019-06-20T21:00:22.797Z,17.50
2019-06-20T21:02:50.445Z,17.50
2019-06-20T21:05:18.144Z,17.50
2019-06-20T21:07:45.787Z,17.50
2019-06-20T21:10:13.931Z,17.50
2019-06-20T21:12:41.589Z,17.50
2019-06-20T21:15:10.388Z,17.40
2019-06-20T21:17:38.024Z,17.40
2019-06-20T21:20:09.148Z,17.40
2019-06-20T21:22:37.125Z,17.30
2019-06-20T21:25:07.575Z,17.30
2019-06-20T21:27:35.226Z,17.20
2019-06-20T21:30:03.109Z,17.20
2019-06-20T21:32:31.353Z,17.20
2019-06-20T21:34:59.030Z,17.20
2019-06-20T21:37:26.740Z,17.20
2019-06-20T21:39:54.484Z,17.10
2019-06-20T21:42:22.134Z,17.10
2019-06-20T21:44:50.176Z,17.10
2019-06-20T21:47:17.828Z,17.10
2019-06-20T21:49:45.569Z,17.10
2019-06-20T21:52:13.216Z,17.00
2019-06-20T21:54:41.151Z,16.90
2019-06-20T21:57:08.798Z,16.90
2019-06-20T21:59:36.492Z,16.90
2019-06-20T22:02:04.949Z,16.90
2019-06-20T22:04:32.687Z,16.90
2019-06-20T22:07:00.341Z,16.90
2019-06-20T22:09:27.990Z,16.80
2019-06-20T22:11:56.000Z,16.80
2019-06-20T22:14:23.639Z,16.80
2019-06-20T22:16:51.456Z,16.70
2019-06-20T22:19:19.256Z,16.70
2019-06-20T22:21:46.937Z,16.70
2019-06-20T22:24:14.579Z,16.60
2019-06-20T22:26:42.256Z,16.60
2019-06-20T22:29:09.897Z,16.60
2019-06-20T22:31:37.584Z,16.60
2019-06-20T22:34:05.487Z,16.60
2019-06-20T22:36:40.256Z,16.60
2019-06-20T22:39:02.524Z,16.60
2019-06-20T22:41:30.201Z,16.50
2019-06-20T22:43:57.854Z,16.60
2019-06-20T22:46:25.531Z,16.50
2019-06-20T22:48:53.178Z,16.50
2019-06-20T22:51:20.861Z,16.50
2019-06-20T22:53:48.500Z,16.50
2019-06-20T22:56:16.185Z,16.50
2019-06-20T22:58:43.827Z,16.40
2019-06-20T23:01:11.511Z,16.40
2019-06-20T23:03:39.143Z,16.40
2019-06-20T23:06:06.827Z,16.30
2019-06-20T23:08:34.478Z,16.30
2019-06-20T23:11:02.170Z,16.30
2019-06-20T23:13:29.821Z,16.30
2019-06-20T23:15:57.834Z,16.30
2019-06-20T23:18:25.520Z,16.30
2019-06-20T23:21:04.276Z,16.30
2019-06-20T23:23:22.651Z,16.20
2019-06-20T23:25:51.963Z,16.20
2019-06-20T23:28:19.612Z,16.20
2019-06-20T23:30:47.542Z,16.10
2019-06-20T23:33:15.179Z,16.00
2019-06-20T23:35:42.863Z,16.00
2019-06-20T23:38:10.509Z,16.00
2019-06-20T23:40:38.194Z,16.00
2019-06-20T23:43:05.932Z,15.90
2019-06-20T23:45:33.613Z,15.90
2019-06-20T23:48:01.270Z,16.00
2019-06-20T23:50:28.935Z,16.00
2019-06-20T23:53:00.888Z,16.10
2019-06-20T23:55:28.559Z,16.10
2019-06-20T23:57:56.213Z,16.10
